createdAt,value
2018-08-08T00:00:30.215Z,936.13
2018-08-08T00:01:30.122Z,936.16
2018-08-08T00:02:30.115Z,936.14
2018-08-08T00:03:30.109Z,936.11
2018-08-08T00:04:30.034Z,936.18
2018-08-08T00:05:29.982Z,936.17
2018-08-08T00:06:29.937Z,936.17
2018-08-08T00:07:29.879Z,936.20
2018-08-08T00:08:29.829Z,936.17
2018-08-08T00:09:29.808Z,936.18
2018-08-08T00:10:29.719Z,936.20
2018-08-08T00:11:29.710Z,936.20
2018-08-08T00:12:29.613Z,936.21
2018-08-08T00:13:29.616Z,936.21
2018-08-08T00:14:29.530Z,936.19
2018-08-08T00:15:29.525Z,936.16
2018-08-08T00:16:29.398Z,936.16
2018-08-08T00:17:29.366Z,936.17
2018-08-08T00:18:29.313Z,936.18
2018-08-08T00:19:29.282Z,936.14
2018-08-08T00:20:29.200Z,936.15
2018-08-08T00:21:29.159Z,936.10
2018-08-08T00:22:29.124Z,936.09
2018-08-08T00:23:29.086Z,936.09
2018-08-08T00:24:29.004Z,936.10
2018-08-08T00:25:28.969Z,936.07
2018-08-08T00:26:28.891Z,936.08
2018-08-08T00:27:28.886Z,936.13
2018-08-08T00:28:28.824Z,936.13
2018-08-08T00:29:28.764Z,936.06
2018-08-08T00:30:28.722Z,936.08
2018-08-08T00:31:28.685Z,936.13
2018-08-08T00:32:28.646Z,936.08
2018-08-08T00:33:28.646Z,936.07
2018-08-08T00:34:28.534Z,936.00
2018-08-08T00:35:28.503Z,935.97
2018-08-08T00:36:28.482Z,936.01
2018-08-08T00:37:28.396Z,936.03
2018-08-08T00:38:28.350Z,936.05
2018-08-08T00:39:28.293Z,935.96
2018-08-08T00:40:28.300Z,936.01
2018-08-08T00:41:28.206Z,936.03
2018-08-08T00:42:28.146Z,936.08
2018-08-08T00:43:28.105Z,936.05
2018-08-08T00:44:28.077Z,936.03
2018-08-08T00:45:28.023Z,936.04
2018-08-08T00:46:27.965Z,936.02
2018-08-08T00:47:27.978Z,936.06
2018-08-08T00:48:27.880Z,936.07
2018-08-08T00:49:27.830Z,936.09
2018-08-08T00:50:27.797Z,936.10
2018-08-08T00:51:27.717Z,936.18
2018-08-08T00:52:27.707Z,936.17
2018-08-08T00:53:27.645Z,936.16
2018-08-08T00:54:27.605Z,936.08
2018-08-08T00:55:27.548Z,936.04
2018-08-08T00:56:27.497Z,936.08
2018-08-08T00:57:27.502Z,936.03
2018-08-08T00:58:27.400Z,936.05
2018-08-08T00:59:27.344Z,936.03
2018-08-08T01:00:27.302Z,936.03
2018-08-08T01:01:27.307Z,936.01
2018-08-08T01:02:27.198Z,936.07
2018-08-08T01:03:27.147Z,936.03
2018-08-08T01:04:27.091Z,936.07
2018-08-08T01:05:27.054Z,936.03
2018-08-08T01:06:26.972Z,936.11
2018-08-08T01:07:26.952Z,936.08
2018-08-08T01:08:26.922Z,936.05
2018-08-08T01:09:26.882Z,936.12
2018-08-08T01:10:26.794Z,936.06
2018-08-08T01:11:26.742Z,936.09
2018-08-08T01:12:26.719Z,936.09
2018-08-08T01:13:26.707Z,936.11
2018-08-08T01:14:26.598Z,936.05
2018-08-08T01:15:26.550Z,936.04
2018-08-08T01:16:26.512Z,936.00
2018-08-08T01:17:26.468Z,936.01
2018-08-08T01:18:26.405Z,936.05
2018-08-08T01:19:26.366Z,936.00
2018-08-08T01:20:26.322Z,936.06
2018-08-08T01:21:26.319Z,936.03
2018-08-08T01:22:26.227Z,936.13
2018-08-08T01:23:26.186Z,936.10
2018-08-08T01:24:26.128Z,936.14
2018-08-08T01:25:26.071Z,936.13
2018-08-08T01:26:26.022Z,936.15
2018-08-08T01:27:25.975Z,936.13
2018-08-08T01:28:25.930Z,936.14
2018-08-08T01:29:25.898Z,936.06
2018-08-08T01:30:25.847Z,936.06
2018-08-08T01:31:25.805Z,936.07
2018-08-08T01:32:25.726Z,936.06
2018-08-08T01:33:25.835Z,936.06
2018-08-08T01:34:25.649Z,936.04
2018-08-08T01:35:25.593Z,936.02
2018-08-08T01:36:25.555Z,936.05
2018-08-08T01:37:25.488Z,936.01
2018-08-08T01:38:25.447Z,935.95
2018-08-08T01:39:25.413Z,935.96
2018-08-08T01:40:25.359Z,936.00
2018-08-08T01:41:25.325Z,936.02
2018-08-08T01:42:25.265Z,935.98
2018-08-08T01:43:25.200Z,936.01
2018-08-08T01:44:25.205Z,936.00
2018-08-08T01:45:25.663Z,936.07
2018-08-08T01:46:25.068Z,936.09
2018-08-08T01:47:25.021Z,936.10
2018-08-08T01:48:24.980Z,936.08
2018-08-08T01:49:24.929Z,936.09
2018-08-08T01:50:24.885Z,936.11
2018-08-08T01:51:24.833Z,936.15
2018-08-08T01:52:24.762Z,936.13
2018-08-08T01:53:24.775Z,936.14
2018-08-08T01:54:24.690Z,936.05
2018-08-08T01:55:24.637Z,936.10
2018-08-08T01:56:24.578Z,936.11
2018-08-08T01:57:24.553Z,936.09
2018-08-08T01:58:24.504Z,936.11
2018-08-08T01:59:24.440Z,936.09
2018-08-08T02:00:24.420Z,936.11
2018-08-08T02:01:24.357Z,936.09
2018-08-08T02:02:24.293Z,936.13
2018-08-08T02:03:24.270Z,936.10
2018-08-08T02:04:24.204Z,936.13
2018-08-08T02:05:24.177Z,936.15
2018-08-08T02:06:24.117Z,936.15
2018-08-08T02:07:24.070Z,936.12
2018-08-08T02:08:24.030Z,936.16
2018-08-08T02:09:23.978Z,936.14
2018-08-08T02:10:23.930Z,936.15
2018-08-08T02:11:23.868Z,936.11
2018-08-08T02:12:23.839Z,936.12
2018-08-08T02:13:23.777Z,936.09
2018-08-08T02:14:23.716Z,936.19
2018-08-08T02:15:23.687Z,936.17
2018-08-08T02:16:23.648Z,936.22
2018-08-08T02:17:23.597Z,936.23
2018-08-08T02:18:23.542Z,936.28
2018-08-08T02:19:23.495Z,936.27
2018-08-08T02:20:23.445Z,936.23
2018-08-08T02:21:23.384Z,936.25
2018-08-08T02:22:23.366Z,936.26
2018-08-08T02:23:23.309Z,936.25
2018-08-08T02:24:23.265Z,936.25
2018-08-08T02:25:23.200Z,936.28
2018-08-08T02:26:23.159Z,936.26
2018-08-08T02:27:23.107Z,936.26
2018-08-08T02:28:23.062Z,936.25
2018-08-08T02:29:23.029Z,936.31
2018-08-08T02:30:22.978Z,936.30
2018-08-08T02:31:22.933Z,936.26
2018-08-08T02:32:22.898Z,936.27
2018-08-08T02:33:22.848Z,936.23
2018-08-08T02:34:22.791Z,936.20
2018-08-08T02:35:22.790Z,936.19
2018-08-08T02:36:22.691Z,936.18
2018-08-08T02:37:22.721Z,936.19
2018-08-08T02:38:22.583Z,936.11
2018-08-08T02:39:22.558Z,936.13
2018-08-08T02:40:22.500Z,936.14
2018-08-08T02:41:22.435Z,936.12
2018-08-08T02:42:22.423Z,936.11
2018-08-08T02:43:22.358Z,936.12
2018-08-08T02:44:22.321Z,936.11
2018-08-08T02:45:22.252Z,936.09
2018-08-08T02:46:22.224Z,936.08
2018-08-08T02:47:22.163Z,936.06
2018-08-08T02:48:22.119Z,936.04
2018-08-08T02:49:22.085Z,936.04
2018-08-08T02:50:22.025Z,936.01
2018-08-08T02:51:21.966Z,935.99
2018-08-08T02:52:21.923Z,935.99
2018-08-08T02:53:21.871Z,936.00
2018-08-08T02:54:21.836Z,936.03
2018-08-08T02:55:21.780Z,936.01
2018-08-08T02:56:21.757Z,936.07
2018-08-08T02:57:21.698Z,936.07
2018-08-08T02:58:21.641Z,936.11
2018-08-08T02:59:21.612Z,936.11
2018-08-08T03:00:21.546Z,936.08
2018-08-08T03:01:21.496Z,936.14
2018-08-08T03:02:21.443Z,936.11
2018-08-08T03:03:21.451Z,936.06
2018-08-08T03:04:21.361Z,936.07
2018-08-08T03:05:21.327Z,936.07
2018-08-08T03:06:21.282Z,936.05
2018-08-08T03:07:21.225Z,936.06
2018-08-08T03:08:21.224Z,936.06
2018-08-08T03:09:21.134Z,936.04
2018-08-08T03:10:21.077Z,936.02
2018-08-08T03:11:21.033Z,936.02
2018-08-08T03:12:20.974Z,935.98
2018-08-08T03:13:20.937Z,935.97
2018-08-08T03:14:20.921Z,935.99
2018-08-08T03:15:20.829Z,936.02
2018-08-08T03:16:20.809Z,936.00
2018-08-08T03:17:20.740Z,936.06
2018-08-08T03:18:20.746Z,936.03
2018-08-08T03:19:20.673Z,936.01
2018-08-08T03:20:20.607Z,936.03
2018-08-08T03:21:20.548Z,936.06
2018-08-08T03:22:20.517Z,935.99
2018-08-08T03:23:20.462Z,936.02
2018-08-08T03:24:20.419Z,935.99
2018-08-08T03:25:20.375Z,935.97
2018-08-08T03:26:20.377Z,935.96
2018-08-08T03:27:20.252Z,935.97
2018-08-08T03:28:20.203Z,935.97
2018-08-08T03:29:20.210Z,935.96
2018-08-08T03:30:20.113Z,935.94
2018-08-08T03:31:20.086Z,935.95
2018-08-08T03:32:20.026Z,935.95
2018-08-08T03:33:19.986Z,935.93
2018-08-08T03:34:19.922Z,935.90
2018-08-08T03:35:19.886Z,935.94
2018-08-08T03:36:19.851Z,935.92
2018-08-08T03:37:19.799Z,935.92
2018-08-08T03:38:19.749Z,935.90
2018-08-08T03:39:19.692Z,935.91
2018-08-08T03:40:19.685Z,935.94
2018-08-08T03:41:19.603Z,935.93
2018-08-08T03:42:19.570Z,935.95
2018-08-08T03:43:19.506Z,935.95
2018-08-08T03:44:19.439Z,935.92
2018-08-08T03:45:19.427Z,935.94
2018-08-08T03:46:19.373Z,935.88
2018-08-08T03:47:19.302Z,935.95
2018-08-08T03:48:19.269Z,935.93
2018-08-08T03:49:19.258Z,935.95
2018-08-08T03:50:19.172Z,935.96
2018-08-08T03:51:19.126Z,935.92
2018-08-08T03:52:19.084Z,935.92
2018-08-08T03:53:19.045Z,935.84
2018-08-08T03:54:19.017Z,935.87
2018-08-08T03:55:18.949Z,935.81
2018-08-08T03:56:18.889Z,935.79
2018-08-08T03:57:18.825Z,935.78
2018-08-08T03:58:19.332Z,935.83
2018-08-08T03:59:18.731Z,935.81
2018-08-08T04:00:18.734Z,935.78
2018-08-08T04:01:18.651Z,935.79
2018-08-08T04:02:18.645Z,935.78
2018-08-08T04:03:18.567Z,935.78
2018-08-08T04:04:18.501Z,935.76
2018-08-08T04:05:18.459Z,935.73
2018-08-08T04:06:18.423Z,935.74
2018-08-08T04:07:18.343Z,935.70
2018-08-08T04:08:18.293Z,935.70
2018-08-08T04:09:18.305Z,935.68
2018-08-08T04:10:18.262Z,935.72
2018-08-08T04:11:18.180Z,935.71
2018-08-08T04:12:18.121Z,935.69
2018-08-08T04:13:18.082Z,935.72
2018-08-08T04:14:18.027Z,935.70
2018-08-08T04:15:17.992Z,935.77
2018-08-08T04:16:17.919Z,935.71
2018-08-08T04:17:17.883Z,935.72
2018-08-08T04:18:17.837Z,935.69
2018-08-08T04:19:17.793Z,935.69
2018-08-08T04:20:17.723Z,935.74
2018-08-08T04:21:17.690Z,935.71
2018-08-08T04:22:17.657Z,935.73
2018-08-08T04:23:17.592Z,935.72
2018-08-08T04:24:17.586Z,935.69
2018-08-08T04:25:17.499Z,935.61
2018-08-08T04:26:17.463Z,935.61
2018-08-08T04:27:17.389Z,935.53
2018-08-08T04:28:17.346Z,935.53
2018-08-08T04:29:17.294Z,935.47
2018-08-08T04:30:17.259Z,935.48
2018-08-08T04:31:17.199Z,935.50
2018-08-08T04:32:17.152Z,935.51
2018-08-08T04:33:17.133Z,935.44
2018-08-08T04:34:17.073Z,935.39
2018-08-08T04:35:17.024Z,935.46
2018-08-08T04:36:16.977Z,935.41
2018-08-08T04:37:16.922Z,935.38
2018-08-08T04:38:16.893Z,935.41
2018-08-08T04:39:16.836Z,935.37
2018-08-08T04:40:16.790Z,935.41
2018-08-08T04:41:16.760Z,935.42
2018-08-08T04:42:16.704Z,935.45
2018-08-08T04:43:16.641Z,935.41
2018-08-08T04:44:16.581Z,935.38
2018-08-08T04:45:16.559Z,935.40
2018-08-08T04:46:16.512Z,935.46
2018-08-08T04:47:16.533Z,935.39
2018-08-08T04:48:16.425Z,935.41
2018-08-08T04:49:16.337Z,935.41
2018-08-08T04:50:16.323Z,935.39
2018-08-08T04:51:16.264Z,935.35
2018-08-08T04:52:16.213Z,935.29
2018-08-08T04:53:16.173Z,935.26
2018-08-08T04:54:16.127Z,935.28
2018-08-08T04:55:16.075Z,935.28
2018-08-08T04:56:16.029Z,935.33
2018-08-08T04:57:15.960Z,935.27
2018-08-08T04:58:15.920Z,935.29
2018-08-08T04:59:15.893Z,935.30
2018-08-08T05:00:15.916Z,935.28
2018-08-08T05:01:15.792Z,935.25
2018-08-08T05:02:15.765Z,935.26
2018-08-08T05:03:15.695Z,935.27
2018-08-08T05:04:15.645Z,935.24
2018-08-08T05:05:16.131Z,935.27
2018-08-08T05:06:15.526Z,935.27
2018-08-08T05:07:15.500Z,935.26
2018-08-08T05:08:15.460Z,935.28
2018-08-08T05:09:15.438Z,935.26
2018-08-08T05:10:15.370Z,935.25
2018-08-08T05:11:15.309Z,935.25
2018-08-08T05:12:15.253Z,935.24
2018-08-08T05:13:15.218Z,935.24
2018-08-08T05:14:15.153Z,935.28
2018-08-08T05:15:15.121Z,935.26
2018-08-08T05:16:15.075Z,935.23
2018-08-08T05:17:15.030Z,935.23
2018-08-08T05:18:14.967Z,935.24
2018-08-08T05:19:14.907Z,935.28
2018-08-08T05:20:15.047Z,935.30
2018-08-08T05:21:14.847Z,935.30
2018-08-08T05:22:14.774Z,935.31
2018-08-08T05:23:14.739Z,935.31
2018-08-08T05:24:14.691Z,935.23
2018-08-08T05:25:14.668Z,935.22
2018-08-08T05:26:14.597Z,935.20
2018-08-08T05:27:14.550Z,935.22
2018-08-08T05:28:14.503Z,935.20
2018-08-08T05:29:14.460Z,935.21
2018-08-08T05:30:14.406Z,935.27
2018-08-08T05:31:14.350Z,935.27
2018-08-08T05:32:14.319Z,935.24
2018-08-08T05:33:14.257Z,935.21
2018-08-08T05:34:14.209Z,935.16
2018-08-08T05:35:14.153Z,935.21
2018-08-08T05:36:14.185Z,935.17
2018-08-08T05:37:14.062Z,935.08
2018-08-08T05:38:14.007Z,935.13
2018-08-08T05:39:13.968Z,935.13
2018-08-08T05:40:13.932Z,935.11
2018-08-08T05:41:13.877Z,935.06
2018-08-08T05:42:13.845Z,935.03
2018-08-08T05:43:13.793Z,935.07
2018-08-08T05:44:13.748Z,935.03
2018-08-08T05:45:13.681Z,935.04
2018-08-08T05:46:13.644Z,935.01
2018-08-08T05:47:13.595Z,934.93
2018-08-08T05:48:13.564Z,935.01
2018-08-08T05:49:13.618Z,934.95
2018-08-08T05:50:13.459Z,934.94
2018-08-08T05:51:13.399Z,934.95
2018-08-08T05:52:13.340Z,934.92
2018-08-08T05:53:13.314Z,934.94
2018-08-08T05:54:13.249Z,934.96
2018-08-08T05:55:13.198Z,934.91
2018-08-08T05:56:13.173Z,934.90
2018-08-08T05:57:13.121Z,934.89
2018-08-08T05:58:13.075Z,934.86
2018-08-08T05:59:13.008Z,934.84
2018-08-08T06:00:12.986Z,934.88
2018-08-08T06:01:12.925Z,934.87
2018-08-08T06:02:12.893Z,934.91
2018-08-08T06:03:12.823Z,934.90
2018-08-08T06:04:12.796Z,934.93
2018-08-08T06:05:12.736Z,934.88
2018-08-08T06:06:12.694Z,934.92
2018-08-08T06:07:12.649Z,934.94
2018-08-08T06:08:13.185Z,934.88
2018-08-08T06:09:12.552Z,934.87
2018-08-08T06:10:12.491Z,934.90
2018-08-08T06:11:12.454Z,934.92
2018-08-08T06:12:12.406Z,934.93
2018-08-08T06:13:12.355Z,934.93
2018-08-08T06:14:12.345Z,934.86
2018-08-08T06:15:12.278Z,934.97
2018-08-08T06:16:12.214Z,934.95
2018-08-08T06:17:12.209Z,934.89
2018-08-08T06:18:12.121Z,934.94
2018-08-08T06:19:12.063Z,934.95
2018-08-08T06:20:12.014Z,934.91
2018-08-08T06:21:11.980Z,934.94
2018-08-08T06:22:11.914Z,934.91
2018-08-08T06:23:11.881Z,934.92
2018-08-08T06:24:11.834Z,934.90
2018-08-08T06:25:11.788Z,934.87
2018-08-08T06:26:11.717Z,934.86
2018-08-08T06:27:11.731Z,934.92
2018-08-08T06:28:12.155Z,934.91
2018-08-08T06:29:11.642Z,934.90
2018-08-08T06:30:11.528Z,934.91
2018-08-08T06:31:11.493Z,934.87
2018-08-08T06:32:11.450Z,934.87
2018-08-08T06:33:11.406Z,934.84
2018-08-08T06:34:11.370Z,934.88
2018-08-08T06:35:11.297Z,934.85
2018-08-08T06:36:11.264Z,934.86
2018-08-08T06:37:11.224Z,934.86
2018-08-08T06:38:11.147Z,934.85
2018-08-08T06:39:11.121Z,934.86
2018-08-08T06:40:11.056Z,934.85
2018-08-08T06:41:11.027Z,934.89
2018-08-08T06:42:10.969Z,934.89
2018-08-08T06:43:10.933Z,934.85
2018-08-08T06:44:10.949Z,934.84
2018-08-08T06:45:10.833Z,934.86
2018-08-08T06:46:10.788Z,934.79
2018-08-08T06:47:10.780Z,934.85
2018-08-08T06:48:10.732Z,934.82
2018-08-08T06:49:10.652Z,934.82
2018-08-08T06:50:10.583Z,934.84
2018-08-08T06:51:10.533Z,934.74
2018-08-08T06:52:10.509Z,934.80
2018-08-08T06:53:10.618Z,934.76
2018-08-08T06:54:10.396Z,934.77
2018-08-08T06:55:10.410Z,934.77
2018-08-08T06:56:10.309Z,934.80
2018-08-08T06:57:10.250Z,934.77
2018-08-08T06:58:10.246Z,934.70
2018-08-08T06:59:10.174Z,934.77
2018-08-08T07:00:10.127Z,934.80
2018-08-08T07:01:10.086Z,934.74
2018-08-08T07:02:10.030Z,934.77
2018-08-08T07:03:09.964Z,934.75
2018-08-08T07:04:09.917Z,934.74
2018-08-08T07:05:09.890Z,934.75
2018-08-08T07:06:09.816Z,934.79
2018-08-08T07:07:09.784Z,934.78
2018-08-08T07:08:09.724Z,934.82
2018-08-08T07:09:09.672Z,934.77
2018-08-08T07:10:09.637Z,934.78
2018-08-08T07:11:09.594Z,934.79
2018-08-08T07:12:09.545Z,934.79
2018-08-08T07:13:09.511Z,934.80
2018-08-08T07:14:09.529Z,934.83
2018-08-08T07:15:09.422Z,934.79
2018-08-08T07:16:09.353Z,934.81
2018-08-08T07:17:09.297Z,934.83
2018-08-08T07:18:09.270Z,934.89
2018-08-08T07:19:09.215Z,934.88
2018-08-08T07:20:09.169Z,934.88
2018-08-08T07:21:09.113Z,934.85
2018-08-08T07:22:09.114Z,934.91
2018-08-08T07:23:09.016Z,934.87
2018-08-08T07:24:08.971Z,934.84
2018-08-08T07:25:08.904Z,934.87
2018-08-08T07:26:08.864Z,934.89
2018-08-08T07:27:08.821Z,934.88
2018-08-08T07:28:08.785Z,934.84
2018-08-08T07:29:08.715Z,934.93
2018-08-08T07:30:08.694Z,934.90
2018-08-08T07:31:08.648Z,934.91
2018-08-08T07:32:08.642Z,934.96
2018-08-08T07:33:08.567Z,934.94
2018-08-08T07:34:08.510Z,934.91
2018-08-08T07:35:08.449Z,934.96
2018-08-08T07:36:08.419Z,934.97
2018-08-08T07:37:08.365Z,934.97
2018-08-08T07:38:08.292Z,934.96
2018-08-08T07:39:08.257Z,934.97
2018-08-08T07:40:08.224Z,934.94
2018-08-08T07:41:08.173Z,935.01
2018-08-08T07:42:08.136Z,935.04
2018-08-08T07:43:08.069Z,935.04
2018-08-08T07:44:08.022Z,935.02
2018-08-08T07:45:07.972Z,935.00
2018-08-08T07:46:07.913Z,935.04
2018-08-08T07:47:07.875Z,935.04
2018-08-08T07:48:07.838Z,935.02
2018-08-08T07:49:07.776Z,935.06
2018-08-08T07:50:07.736Z,935.04
2018-08-08T07:51:07.687Z,935.06
2018-08-08T07:52:07.655Z,935.03
2018-08-08T07:53:07.641Z,935.02
2018-08-08T07:54:07.554Z,935.02
2018-08-08T07:55:07.503Z,935.05
2018-08-08T07:56:07.466Z,935.04
2018-08-08T07:57:07.408Z,935.04
2018-08-08T07:58:07.522Z,935.12
2018-08-08T07:59:07.311Z,935.08
2018-08-08T08:00:07.275Z,935.13
2018-08-08T08:01:07.223Z,935.14
2018-08-08T08:02:07.176Z,935.15
2018-08-08T08:03:07.173Z,935.20
2018-08-08T08:04:07.078Z,935.15
2018-08-08T08:05:07.031Z,935.15
2018-08-08T08:06:06.993Z,935.20
2018-08-08T08:07:06.941Z,935.19
2018-08-08T08:08:06.889Z,935.22
2018-08-08T08:09:06.833Z,935.21
2018-08-08T08:10:06.796Z,935.23
2018-08-08T08:11:06.744Z,935.19
2018-08-08T08:12:06.691Z,935.23
2018-08-08T08:13:06.636Z,935.24
2018-08-08T08:14:06.599Z,935.17
2018-08-08T08:15:06.558Z,935.19
2018-08-08T08:16:06.504Z,935.12
2018-08-08T08:17:06.463Z,935.21
2018-08-08T08:18:06.403Z,935.19
2018-08-08T08:19:06.351Z,935.19
2018-08-08T08:20:06.298Z,935.21
2018-08-08T08:21:06.243Z,935.21
2018-08-08T08:22:06.225Z,935.21
2018-08-08T08:23:06.227Z,935.19
2018-08-08T08:24:06.130Z,935.23
2018-08-08T08:25:06.068Z,935.19
2018-08-08T08:26:06.023Z,935.24
2018-08-08T08:27:05.960Z,935.26
2018-08-08T08:28:05.934Z,935.26
2018-08-08T08:29:05.927Z,935.24
2018-08-08T08:30:05.828Z,935.28
2018-08-08T08:31:05.781Z,935.29
2018-08-08T08:32:05.721Z,935.28
2018-08-08T08:33:05.703Z,935.29
2018-08-08T08:34:05.652Z,935.27
2018-08-08T08:35:05.599Z,935.30
2018-08-08T08:36:05.598Z,935.30
2018-08-08T08:37:05.497Z,935.33
2018-08-08T08:38:05.465Z,935.30
2018-08-08T08:39:05.428Z,935.31
2018-08-08T08:40:05.355Z,935.33
2018-08-08T08:41:05.316Z,935.36
2018-08-08T08:42:05.316Z,935.38
2018-08-08T08:43:05.219Z,935.40
2018-08-08T08:44:05.172Z,935.38
2018-08-08T08:45:05.119Z,935.38
2018-08-08T08:46:05.063Z,935.39
2018-08-08T08:47:05.039Z,935.41
2018-08-08T08:48:04.996Z,935.42
2018-08-08T08:49:04.929Z,935.43
2018-08-08T08:50:04.981Z,935.45
2018-08-08T08:51:04.857Z,935.46
2018-08-08T08:52:04.803Z,935.45
2018-08-08T08:53:04.794Z,935.47
2018-08-08T08:54:04.692Z,935.51
2018-08-08T08:55:04.651Z,935.52
2018-08-08T08:56:04.598Z,935.53
2018-08-08T08:57:04.574Z,935.53
2018-08-08T08:58:04.528Z,935.54
2018-08-08T08:59:04.455Z,935.55
2018-08-08T09:00:04.414Z,935.59
2018-08-08T09:01:04.865Z,935.57
2018-08-08T09:02:04.329Z,935.57
2018-08-08T09:03:04.265Z,935.59
2018-08-08T09:04:04.230Z,935.63
2018-08-08T09:05:04.159Z,935.63
2018-08-08T09:06:04.143Z,935.60
2018-08-08T09:07:04.078Z,935.64
2018-08-08T09:08:04.036Z,935.70
2018-08-08T09:09:03.983Z,935.64
2018-08-08T09:10:03.943Z,935.65
2018-08-08T09:11:03.894Z,935.66
2018-08-08T09:12:03.830Z,935.66
2018-08-08T09:13:03.787Z,935.68
2018-08-08T09:14:03.752Z,935.66
2018-08-08T09:15:03.790Z,935.68
2018-08-08T09:16:03.680Z,935.67
2018-08-08T09:17:03.653Z,935.71
2018-08-08T09:18:03.545Z,935.70
2018-08-08T09:19:03.511Z,935.72
2018-08-08T09:20:03.478Z,935.70
2018-08-08T09:21:03.440Z,935.74
2018-08-08T09:22:03.423Z,935.71
2018-08-08T09:23:03.336Z,935.74
2018-08-08T09:24:03.265Z,935.76
2018-08-08T09:25:03.234Z,935.74
2018-08-08T09:26:03.186Z,935.75
2018-08-08T09:27:03.180Z,935.77
2018-08-08T09:28:03.105Z,935.76
2018-08-08T09:29:03.043Z,935.77
2018-08-08T09:30:02.997Z,935.74
2018-08-08T09:31:03.003Z,935.80
2018-08-08T09:32:02.922Z,935.76
2018-08-08T09:33:02.860Z,935.76
2018-08-08T09:34:02.805Z,935.79
2018-08-08T09:35:02.756Z,935.82
2018-08-08T09:36:02.755Z,935.79
2018-08-08T09:37:02.680Z,935.79
2018-08-08T09:38:02.631Z,935.76
2018-08-08T09:39:02.564Z,935.79
2018-08-08T09:40:02.539Z,935.81
2018-08-08T09:41:02.500Z,935.73
2018-08-08T09:42:02.518Z,935.79
2018-08-08T09:43:02.373Z,935.80
2018-08-08T09:44:02.347Z,935.86
2018-08-08T09:45:02.303Z,935.80
2018-08-08T09:46:02.253Z,935.81
2018-08-08T09:47:02.196Z,935.79
2018-08-08T09:48:02.149Z,935.79
2018-08-08T09:49:02.140Z,935.80
2018-08-08T09:50:02.058Z,935.82
2018-08-08T09:51:02.610Z,935.81
2018-08-08T09:52:01.951Z,935.80
2018-08-08T09:53:01.908Z,935.82
2018-08-08T09:54:01.861Z,935.80
2018-08-08T09:55:01.802Z,935.86
2018-08-08T09:56:01.780Z,935.80
2018-08-08T09:57:01.733Z,935.85
2018-08-08T09:58:01.707Z,935.83
2018-08-08T09:59:01.635Z,935.83
2018-08-08T10:00:01.593Z,935.84
2018-08-08T10:01:01.522Z,935.81
2018-08-08T10:02:01.471Z,935.83
2018-08-08T10:03:01.444Z,935.85
2018-08-08T10:04:01.428Z,935.85
2018-08-08T10:05:01.339Z,935.84
2018-08-08T10:06:01.306Z,935.85
2018-08-08T10:07:01.251Z,935.89
2018-08-08T10:08:01.214Z,935.85
2018-08-08T10:09:01.156Z,935.88
2018-08-08T10:10:01.111Z,935.90
2018-08-08T10:11:01.058Z,935.87
2018-08-08T10:12:01.054Z,935.93
2018-08-08T10:13:00.965Z,935.94
2018-08-08T10:14:00.927Z,935.95
2018-08-08T10:15:00.867Z,936.02
2018-08-08T10:16:00.813Z,936.00
2018-08-08T10:17:00.791Z,936.01
2018-08-08T10:18:00.724Z,936.01
2018-08-08T10:19:00.740Z,935.99
2018-08-08T10:20:00.646Z,936.00
2018-08-08T10:21:00.578Z,935.96
2018-08-08T10:22:00.522Z,935.97
2018-08-08T10:23:00.499Z,935.92
2018-08-08T10:24:00.456Z,935.93
2018-08-08T10:25:00.393Z,935.97
2018-08-08T10:26:00.336Z,935.96
2018-08-08T10:27:00.354Z,936.01
2018-08-08T10:28:00.261Z,935.98
2018-08-08T10:29:00.214Z,936.03
2018-08-08T10:30:00.146Z,936.08
2018-08-08T10:31:00.109Z,936.04
2018-08-08T10:32:00.067Z,936.03
2018-08-08T10:33:00.559Z,936.06
2018-08-08T10:33:59.977Z,936.08
2018-08-08T10:34:59.957Z,936.10
2018-08-08T10:35:59.885Z,936.14
2018-08-08T10:36:59.839Z,936.17
2018-08-08T10:37:59.783Z,936.17
2018-08-08T10:38:59.732Z,936.15
2018-08-08T10:39:59.679Z,936.16
2018-08-08T10:40:59.653Z,936.16
2018-08-08T10:41:59.639Z,936.18
2018-08-08T10:42:59.563Z,936.25
2018-08-08T10:43:59.512Z,936.26
2018-08-08T10:44:59.468Z,936.30
2018-08-08T10:45:59.421Z,936.32
2018-08-08T10:46:59.355Z,936.30
2018-08-08T10:47:59.320Z,936.31
2018-08-08T10:48:59.249Z,936.32
2018-08-08T10:49:59.225Z,936.34
2018-08-08T10:50:59.173Z,936.36
2018-08-08T10:51:59.139Z,936.39
2018-08-08T10:52:59.093Z,936.39
2018-08-08T10:53:59.038Z,936.40
2018-08-08T10:54:58.988Z,936.41
2018-08-08T10:55:59.043Z,936.52
2018-08-08T10:56:58.903Z,936.52
2018-08-08T10:57:58.869Z,936.56
2018-08-08T10:58:58.794Z,936.59
2018-08-08T10:59:58.752Z,936.60
2018-08-08T11:00:58.742Z,936.58
2018-08-08T11:01:58.654Z,936.61
2018-08-08T11:02:58.612Z,936.60
2018-08-08T11:03:58.574Z,936.63
2018-08-08T11:04:58.528Z,936.60
2018-08-08T11:05:58.473Z,936.62
2018-08-08T11:06:58.453Z,936.56
2018-08-08T11:07:58.418Z,936.63
2018-08-08T11:08:58.439Z,936.64
2018-08-08T11:09:58.298Z,936.69
2018-08-08T11:10:58.245Z,936.69
2018-08-08T11:11:58.235Z,936.68
2018-08-08T11:12:58.138Z,936.69
2018-08-08T11:13:58.082Z,936.74
2018-08-08T11:14:58.081Z,936.75
2018-08-08T11:15:57.997Z,936.74
2018-08-08T11:16:58.009Z,936.72
2018-08-08T11:17:57.889Z,936.73
2018-08-08T11:18:57.841Z,936.77
2018-08-08T11:19:58.025Z,936.72
2018-08-08T11:20:57.765Z,936.72
2018-08-08T11:21:57.725Z,936.72
2018-08-08T11:22:57.723Z,936.75
2018-08-08T11:23:57.624Z,936.77
2018-08-08T11:24:57.612Z,936.83
2018-08-08T11:25:57.536Z,936.86
2018-08-08T11:26:57.470Z,936.78
2018-08-08T11:27:57.423Z,936.78
2018-08-08T11:28:57.390Z,936.78
2018-08-08T11:29:57.329Z,936.78
2018-08-08T11:30:57.278Z,936.86
2018-08-08T11:31:57.228Z,936.85
2018-08-08T11:32:57.187Z,936.84
2018-08-08T11:33:57.161Z,936.84
2018-08-08T11:34:57.132Z,936.83
2018-08-08T11:35:57.066Z,936.85
2018-08-08T11:36:57.038Z,936.86
2018-08-08T11:37:57.000Z,936.87
2018-08-08T11:38:57.133Z,936.90
2018-08-08T11:39:56.910Z,936.87
2018-08-08T11:40:56.839Z,936.87
2018-08-08T11:41:56.776Z,936.90
2018-08-08T11:42:56.774Z,936.93
2018-08-08T11:43:56.691Z,936.95
2018-08-08T11:44:56.618Z,936.91
2018-08-08T11:45:56.577Z,936.91
2018-08-08T11:46:56.558Z,937.00
2018-08-08T11:47:56.496Z,937.02
2018-08-08T11:48:56.436Z,936.98
2018-08-08T11:49:56.404Z,936.94
2018-08-08T11:50:56.353Z,936.92
2018-08-08T11:51:56.354Z,936.96
2018-08-08T11:52:56.270Z,936.99
2018-08-08T11:53:56.217Z,937.09
2018-08-08T11:54:56.173Z,936.96
2018-08-08T11:55:56.130Z,936.97
2018-08-08T11:56:56.089Z,936.91
2018-08-08T11:57:56.027Z,936.91
2018-08-08T11:58:55.974Z,936.97
2018-08-08T11:59:55.927Z,936.97
2018-08-08T12:00:55.874Z,936.95
2018-08-08T12:01:55.882Z,936.99
2018-08-08T12:02:55.787Z,936.97
2018-08-08T12:03:55.737Z,936.96
2018-08-08T12:04:55.698Z,936.96
2018-08-08T12:05:55.738Z,936.95
2018-08-08T12:06:55.605Z,936.97
2018-08-08T12:07:55.581Z,936.95
2018-08-08T12:08:55.558Z,936.97
2018-08-08T12:09:55.466Z,937.01
2018-08-08T12:10:55.998Z,936.95
2018-08-08T12:11:55.381Z,936.97
2018-08-08T12:12:55.346Z,936.98
2018-08-08T12:13:55.301Z,936.96
2018-08-08T12:14:55.233Z,936.93
2018-08-08T12:15:55.196Z,936.98
2018-08-08T12:16:55.150Z,936.98
2018-08-08T12:17:55.103Z,936.96
2018-08-08T12:18:55.078Z,936.96
2018-08-08T12:19:54.989Z,936.95
2018-08-08T12:20:54.959Z,936.94
2018-08-08T12:21:54.936Z,936.96
2018-08-08T12:22:54.851Z,936.97
2018-08-08T12:23:54.820Z,936.97
2018-08-08T12:24:54.784Z,936.99
2018-08-08T12:25:54.720Z,936.96
2018-08-08T12:26:54.695Z,936.97
2018-08-08T12:27:54.629Z,937.00